Skip to main content.
 TIME   TEMPERATURE   WINDSPEED   DIRECTION   HUMIDITY   BAROMETER   RAINFALL 
5:05 25.2°C (77.4°F) 14.8 kmh (9.2 mph) SW 67% 1019.0hPa (30.09 inHg) 2.0mm (0.08 in.)
4:05 25.8°C (78.4 °F) 18.5 kmh (11.5 mph) SW 67% 1019.0hPa (30.09 inHg) 2.0mm (0.08 in.)
3:05 26.0°C (78.8 °F) 16.7 kmh (10.4 mph) WSW 66% 1020.0hPa (30.12 inHg) 2.0mm (0.08 in.)
2:05 26.0°C (78.8 °F) 20.4 kmh (12.7 mph) WSW 67% 1021.0hPa (30.15 inHg) 2.0mm (0.08 in.)
1:05 25.7°C (78.3 °F) 22.2 kmh (13.8 mph) W 68% 1022.0hPa (30.18 inHg) 2.0mm (0.08 in.)
12:05 25.3°C (77.5 °F) 20.4 kmh (12.7 mph) WNW 69% 1022.0hPa (30.18 inHg) 2.0mm (0.08 in.)
11:05 24.7°C (76.5 °F) 18.5 kmh (11.5 mph) SW 72% 1022.0hPa (30.18 inHg) 2.0mm (0.08 in.)
10:05 24.1°C (75.4 °F) 18.5 kmh (11.5 mph) SW 74% 1022.0hPa (30.18 inHg) 2.0mm (0.08 in.)
9:05 22.6°C (72.7 °F) 11.1 kmh (6.9 mph) SW 75% 1021.0hPa (30.15 inHg) 2.0mm (0.08 in.)
8:05 21.7°C (71.1 °F) 13.0 kmh (8.1 mph) WSW 75% 1021.0hPa (30.15 inHg) 2.0mm (0.08 in.)
6:57 21.3°C (70.3 °F) 16.7 kmh (10.4 mph) WSW 74% 1021.0hPa (30.15 inHg) 0.0mm (0.00 in.)
5:57 21.3°C (70.3 °F) 11.1 kmh (6.9 mph) SW 73% 1021.0hPa (30.15 inHg) 0.0mm (0.00 in.)
4:57 21.3°C (70.3 °F) 13.0 kmh (8.1 mph) WSW 72% 1021.0hPa (30.15 inHg) 0.0mm (0.00 in.)
3:57 21.4°C (70.5 °F) 13.0 kmh (8.1 mph) SW 72% 1021.0hPa (30.15 inHg) 0.0mm (0.00 in.)
2:57 21.4°C (70.5 °F) 13.0 kmh (8.1 mph) SSW 71% 1022.0hPa (30.18 inHg) 0.0mm (0.00 in.)
1:57 21.2°C (70.2 °F) 7.4 kmh (4.6 mph) SSW 71% 1022.0hPa (30.18 inHg) 0.0mm (0.00 in.)
12:57 21.2°C (70.2 °F) 20.4 kmh (12.7 mph) SW 68% 1022.0hPa (30.18 inHg) 0.0mm (0.00 in.)
11:57 22.0°C (71.6 °F) 14.8 kmh (9.2 mph) SW 66% 1023.0hPa (30.21 inHg) 0.0mm (0.00 in.)
10:57 22.0°C (71.6 °F) 16.7 kmh (10.4 mph) SW 66% 1023.0hPa (30.21 inHg) 0.0mm (0.00 in.)
9:57 22.6°C (72.7 °F) 22.2 kmh (13.8 mph) SW 65% 1023.0hPa (30.21 inHg) 0.0mm (0.00 in.)
8:57 22.7°C (72.9 °F) 18.5 kmh (11.5 mph) SW 63% 1023.0hPa (30.21 inHg) 0.0mm (0.00 in.)
7:57 22.7°C (72.9 °F) 20.4 kmh (12.7 mph) SW 63% 1022.0hPa (30.18 inHg) 0.0mm (0.00 in.)
6:57 22.9°C (73.2 °F) 18.5 kmh (11.5 mph) SW 64% 1022.0hPa (30.18 inHg) 0.0mm (0.00 in.)
4:17 23.4°C (74.1 °F) 22.2 kmh (13.8 mph) SW 60% 1023.0hPa (30.21 inHg) 0.0mm (0.00 in.)